Timothy Cunningham

Chefscout - AFC Wimbledon
2 Mär 2028
Donnerstag
Verarbeitung

Persönlichkeit

Anpassungsfähigkeit (19) Ehrgeiz (8) Kontroverse (12) Loyalität (14) Druck (4) Professionalität (6) Fairness (4) Temperament (5)

Profil

Trainerstil Demokratisch
Lizenz Nationale B
Entschlossenheit 10
Menschenführung 3
Motivation 9
Disziplin 7
Arbeitszufriedenheit
100%
Ermüdung
0%
Rolle Chefscout
Gehalt 12.5K p/W
Vertrag 14.03.2028

Leistung

Verhalten Gut
Trainingseffektivität
33%
Spielerentwicklung
35%
Verletzungsprävention
25%
Taktische Umsetzung
40%

Letzte Ereignisse

Vertragsverhandlung begonnen jetzt
Vertragsverhandlung begonnen 7T her
Vertragsverhandlung begonnen 7T her
Vertragsverhandlung begonnen 7T her
Vertragsverhandlung begonnen 7T her
Vertragsverhandlung begonnen 7T her
Vertragsverhandlung begonnen 7T her
Vertragsverhandlung begonnen 7T her

Aktuell beobachtet

97
Spieler Verein Status Fähigkeit Vertrauen Beobachtet Zuletzt beobachtet Letzte Stimme
Owen Gene Minnesota United FC Aktiv 118 / 116 40% 1 19.01.2028 -
Nicolás Previtali Atlanta Aktiv 104 / 114 40% 1 19.01.2028 -
John Chetauya Elche Aktiv 129 / 136 40% 1 19.01.2028 -
Ezekiel Edidiong Enyimba Aktiv 95 / 92 40% 2 31.08.2027 -
Sabo Gambo Inter Allies Aktiv 106 / 94 40% 1 31.08.2027 -
Othuke Egbo Warri Wolves Aktiv 85 / 76 40% 1 31.08.2027 -
Franco Malagueño Colegiales Aktiv 104 / 106 40% 1 31.08.2027 -
Juan Murillo Llaneros Aktiv 110 / 108 40% 1 31.08.2027 -
Ariath Piol Real Salt Lake Aktiv 110 / 94 40% 1 31.08.2027 -
Alao Dabani Plateau United Aktiv 82 / 93 40% 1 30.08.2027 -
Johnmark Atule Shooting Stars Aktiv 99 / 92 40% 1 30.08.2027 -
Tomás Fernández Aldosivi Aktiv 120 / 121 40% 2 28.08.2027 -
Mauricio Márquez Caracas Aktiv 102 / 95 40% 1 28.08.2027 -
Luca Martínez Dupuy Godoy Cruz Aktiv 131 / 115 40% 3 27.08.2027 -
Gonzalo Córdoba Mitre Aktiv 101 / 97 40% 2 27.08.2027 -
Enzo González Defensores Aktiv 104 / 113 40% 4 26.08.2027 -
Mateo Mamani Colegiales Aktiv 107 / 111 40% 2 26.08.2027 -
Juan Rocca Gimnasia y Tiro Aktiv 103 / 110 40% 1 25.08.2027 -
Santiago Apa All Boys Aktiv 107 / 113 40% 1 24.08.2027 -
César Magallan Estudiantes de Merida Aktiv 103 / 97 40% 1 24.08.2027 -
Daniel Sakari Gor Mahia Aktiv 84 / 87 40% 1 23.08.2027 -
Alejo Dramisino Atlanta Aktiv 116 / 118 40% 1 23.08.2027 -
Shota Shekiladze Dila Aktiv 102 / 113 40% 1 23.08.2027 -
Josephat Lopaga Kakamega Homeboyz Aktiv 105 / 99 40% 1 23.08.2027 -
Peter Thiong'o Kakamega Homeboyz Aktiv 87 / 81 40% 1 22.08.2027 -
Juan Cruz Franzoni Gimnasia y Esgrima Aktiv 100 / 107 40% 1 22.08.2027 -
Chinedu Onyinjekwu Bayelsa United Aktiv 108 / 104 40% 2 20.08.2027 -
Nicola Nanni Arzignano Aktiv 97 / 103 40% 1 20.08.2027 -
Leonardo Candellone Juve Stabia Aktiv 120 / 129 40% 1 19.08.2027 -
Emanuele Pecorino Catanzaro Aktiv 115 / 111 40% 1 19.08.2027 -
Nikola Vlašić Torino Aktiv 152 / 143 40% 1 18.08.2027 -
Dany Mota Monza Aktiv 140 / 135 40% 1 17.08.2027 -
Marco Tumminello Benevento Aktiv 114 / 116 40% 1 17.08.2027 -
Jere Vrcić Birkirkara Aktiv 105 / 104 40% 2 15.08.2027 -
Amadou Makhtarlayi Sarr Trapani Aktiv 102 / 103 40% 1 15.08.2027 -
Gustavo Viera Cerro Largo Aktiv 109 / 96 40% 1 15.08.2027 -
Román Gamarra San Telmo Aktiv 94 / 102 40% 1 15.08.2027 -
Sergio Rodelas Granada Aktiv 114 / 121 40% 1 14.08.2027 -
Juan Pablo De la Reta Maipú Aktiv 111 / 111 40% 1 14.08.2027 -
Guljigit Borubaev Neman Aktiv 112 / 100 40% 1 11.08.2027 -
Leonardo Bellini Pianese Aktiv 96 / 93 40% 2 09.08.2027 -
Julen Cordero Samtredia Aktiv 107 / 102 40% 1 09.08.2027 -
Owen Falconis Cerrito Aktiv 95 / 109 40% 1 08.08.2027 -
Tommaso Ravaglioli AlbinoLeffe Aktiv 102 / 104 40% 2 07.08.2027 -
Exon Arzú Carabobo Aktiv 97 / 106 40% 2 06.08.2027 -
Junior Paredes Trujillanos Aktiv 115 / 111 40% 2 06.08.2027 -
Luca Maiorano Ospitaletto Aktiv 99 / 110 40% 1 04.08.2027 -
Angel Uñates Güemes Aktiv 98 / 94 40% 2 03.08.2027 -
José Rondón Zulia Aktiv 103 / 89 40% 1 03.08.2027 -
Tyler Walton Walsall Aktiv 100 / 94 40% 1 01.08.2027 -
Santiago Herrera Estudiantes de Caracas Aktiv 93 / 89 40% 1 01.08.2027 -
Lisandro Cabrera Maipú Aktiv 104 / 119 40% 3 28.07.2027 -
Simone Saporetti Novara Aktiv 104 / 102 40% 1 28.07.2027 -
Esteban da Silva Racing Aktiv 101 / 122 40% 2 26.07.2027 -
Giancarlo Mosta Aktiv 84 / 86 40% 1 24.07.2027 -
Lorenzo De Leo Renate Aktiv 105 / 98 40% 1 20.07.2027 -
Sebastián Marfort Racing Aktiv 102 / 114 40% 1 20.07.2027 -
Alejandro Viniegra Veracruz Aktiv 102 / 96 40% 1 20.07.2027 -
Rufat Garayev Ravan Aktiv 114 / 93 40% 2 19.07.2027 -
Andrés Molinas Saburtalo Aktiv 98 / 98 40% 1 12.07.2027 -
Daniil Konoplev Dinamo Bryansk Aktiv 99 / 88 40% 1 12.07.2027 -
Jack Vale Pro Vercelli Aktiv 92 / 96 40% 2 11.07.2027 -
Abubakar Bonni Enyimba Aktiv 80 / 97 40% 1 11.07.2027 -
Aaron Nemane Newport County Aktiv 88 / 95 40% 2 13.06.2027 -
Yves Koutiama Kenya Police Aktiv 92 / 94 40% 1 13.06.2027 -
Liam Gordon Port Vale Aktiv 97 / 101 40% 1 11.06.2027 -
Jake Hollman Walsall Aktiv 96 / 92 40% 1 11.06.2027 -
Lord Hilary Adabo Asante Kotoko Aktiv 75 / 91 40% 1 11.06.2027 -
Nuri Abdokov Fakel Aktiv 115 / 97 40% 1 09.06.2027 -
Beryly Lubala Vicenza Aktiv 102 / 98 40% 2 08.06.2027 -
Mauricio Isais Pachuca Aktiv 127 / 113 40% 1 08.06.2027 -
Kamran Aliev SKA Khabarovsk Aktiv 102 / 104 40% 1 05.06.2027 -
Harold Lascano Agia Napa Aktiv 91 / 83 40% 1 04.06.2027 -
Christian D'Urso Triestina Aktiv 103 / 97 40% 1 04.06.2027 -
Aldair Ramírez Chernomorets Aktiv 90 / 88 40% 1 03.06.2027 -
Ethan Bristow Tranmere Rovers Aktiv 99 / 100 40% 1 02.06.2027 -
Preslav Borukov Beroe Aktiv 94 / 93 40% 1 31.01.2027 -
Lee Bonis Chesterfield Aktiv 100 / 105 40% 1 30.01.2027 -
Mykola Haiduchyk Polissia Aktiv 101 / 115 40% 1 29.01.2027 -
Solly Khunyedi Bloemfontein Celtic Aktiv 95 / 89 40% 1 29.01.2027 -
Wandile Duba Bidvest Wits Aktiv 115 / 115 40% 2 25.01.2027 -
Sam Nombe Milton Keynes Dons Aktiv 105 / 117 40% 1 25.01.2027 -
Stanislav Biblyk Chaika Aktiv 87 / 91 40% 1 25.01.2027 -
Stephen Odey CS Constantine Aktiv 104 / 108 40% 2 16.08.2026 -
Luke Baartman Ghazl El Mahalla Aktiv 85 / 107 40% 1 16.08.2026 -
Robert Mizo Rangers International Aktiv 92 / 91 40% 2 15.08.2026 -
Tyler Wolff Real Salt Lake Aktiv 100 / 106 40% 1 15.08.2026 -
Ramiro Ruiz Rodríguez Atlético Tucumán Aktiv 120 / 108 40% 1 14.08.2026 -
Ahmed Musa Kano Pillars Aktiv 106 / 99 40% 1 14.08.2026 -
Peter Shalulile Mamelodi Sundowns Aktiv 119 / 118 40% 1 13.08.2026 -
Emiliano Marcondes OB Aktiv 115 / 104 40% 2 10.08.2026 -
Ismail Sarki Niger Tornadoes Aktiv 105 / 105 40% 1 10.08.2026 -
Blessing Eleke ES Mostaganem Aktiv 103 / 103 40% 1 07.08.2026 -
Gerardo Valenzuela FC Cincinnati Aktiv 94 / 97 40% 1 07.08.2026 -
Franklin Sasere Birkirkara Aktiv 99 / 91 40% 1 04.08.2026 -
Chidi Akuneto Bendel Insurance Aktiv 102 / 80 40% 1 04.08.2026 -
Themba Billiat Platinum Stars Aktiv 84 / 100 40% 1 03.08.2026 -